logo
Search for airport 
image banner adimage banner adimage banner ad
image banner ad

FANA - Nongoma

Located in Nongoma, South Africa

ICAO - FANA, IATA -

Data provided by Airmate  

General information

Coordinates: S27°54'50" E31°39'22"
Elevation is 2595 feet MSL.
 
View others Airports in Kwazulu-Natal

Operational data

Special qualification required
Current time UTC:
Current local time:
Weather at : - ( 0 km )
METAR: MRLM 242020Z 03007KT 9999 FEW030 BKN130 30/26 A2980
View NOTAMs / SUP AIP / TFR affecting this airport [VIEW]
Communications frequencies: [VIEW]

Runways:

Airport contact information

Address: Nongoma South Africa

Satellite view of FANA